sensor_id;sensor_type;location;lat;lon;timestamp;pressure;altitude;pressure_sealevel;temperature;humidity
60817;BME280;51921;51.518;-3.188;2023-07-22T00:01:14;101067.02;;;14.46;100.00
60817;BME280;51921;51.518;-3.188;2023-07-22T00:03:39;101065.85;;;14.90;100.00
60817;BME280;51921;51.518;-3.188;2023-07-22T00:06:05;101061.05;;;14.66;100.00
60817;BME280;51921;51.518;-3.188;2023-07-22T00:08:30;101057.98;;;14.40;100.00
60817;BME280;51921;51.518;-3.188;2023-07-22T00:10:56;101055.14;;;14.41;100.00
60817;BME280;51921;51.518;-3.188;2023-07-22T00:13:21;101051.30;;;14.51;100.00
60817;BME280;51921;51.518;-3.188;2023-07-22T00:15:46;101047.84;;;15.09;100.00
60817;BME280;51921;51.518;-3.188;2023-07-22T00:18:12;101047.17;;;15.21;100.00
60817;BME280;51921;51.518;-3.188;2023-07-22T00:20:37;101045.10;;;14.69;100.00
60817;BME280;51921;51.518;-3.188;2023-07-22T00:23:02;101039.69;;;13.82;100.00
60817;BME280;51921;51.518;-3.188;2023-07-22T00:25:28;101040.93;;;13.29;100.00
60817;BME280;51921;51.518;-3.188;2023-07-22T00:27:53;101041.91;;;12.89;100.00
60817;BME280;51921;51.518;-3.188;2023-07-22T00:30:19;101035.08;;;14.26;100.00
60817;BME280;51921;51.518;-3.188;2023-07-22T00:32:44;101032.76;;;14.22;100.00
60817;BME280;51921;51.518;-3.188;2023-07-22T00:35:10;101028.67;;;13.85;100.00
60817;BME280;51921;51.518;-3.188;2023-07-22T00:37:35;101027.24;;;14.11;100.00
60817;BME280;51921;51.518;-3.188;2023-07-22T00:40:01;101028.40;;;14.54;100.00
60817;BME280;51921;51.518;-3.188;2023-07-22T00:42:26;101028.03;;;15.31;100.00
60817;BME280;51921;51.518;-3.188;2023-07-22T00:44:51;101020.07;;;14.79;100.00
60817;BME280;51921;51.518;-3.188;2023-07-22T00:47:17;101021.29;;;15.95;100.00
60817;BME280;51921;51.518;-3.188;2023-07-22T00:49:42;101015.44;;;15.78;98.21
60817;BME280;51921;51.518;-3.188;2023-07-22T00:52:07;101013.80;;;14.95;99.44
60817;BME280;51921;51.518;-3.188;2023-07-22T00:54:33;101010.58;;;15.11;97.34
60817;BME280;51921;51.518;-3.188;2023-07-22T00:56:58;101005.99;;;15.78;95.93
60817;BME280;51921;51.518;-3.188;2023-07-22T00:59:24;101005.12;;;15.42;96.89
60817;BME280;51921;51.518;-3.188;2023-07-22T01:01:49;100999.77;;;15.53;96.05
60817;BME280;51921;51.518;-3.188;2023-07-22T01:04:15;100999.32;;;16.14;92.43
60817;BME280;51921;51.518;-3.188;2023-07-22T01:06:40;100997.43;;;15.54;93.12
60817;BME280;51921;51.518;-3.188;2023-07-22T01:09:05;100990.72;;;16.69;89.33
60817;BME280;51921;51.518;-3.188;2023-07-22T01:11:30;100989.57;;;15.73;91.03
60817;BME280;51921;51.518;-3.188;2023-07-22T01:13:56;100986.25;;;14.72;95.56
60817;BME280;51921;51.518;-3.188;2023-07-22T01:16:21;100977.27;;;15.44;92.27
60817;BME280;51921;51.518;-3.188;2023-07-22T01:18:47;100976.10;;;14.82;96.38
60817;BME280;51921;51.518;-3.188;2023-07-22T01:21:12;100968.11;;;15.39;92.49
60817;BME280;51921;51.518;-3.188;2023-07-22T01:23:38;100961.85;;;16.29;89.69
60817;BME280;51921;51.518;-3.188;2023-07-22T01:26:03;100962.40;;;15.10;92.88
60817;BME280;51921;51.518;-3.188;2023-07-22T01:28:28;100958.36;;;16.71;86.15
60817;BME280;51921;51.518;-3.188;2023-07-22T01:30:53;100956.31;;;16.23;87.97
60817;BME280;51921;51.518;-3.188;2023-07-22T01:33:19;100956.38;;;15.44;90.97
60817;BME280;51921;51.518;-3.188;2023-07-22T01:35:44;100956.84;;;15.81;89.76
60817;BME280;51921;51.518;-3.188;2023-07-22T01:38:10;100953.73;;;15.84;89.71
60817;BME280;51921;51.518;-3.188;2023-07-22T01:40:35;100955.10;;;15.13;91.91
60817;BME280;51921;51.518;-3.188;2023-07-22T01:43:00;100947.25;;;16.25;88.72
60817;BME280;51921;51.518;-3.188;2023-07-22T01:45:26;100946.22;;;16.62;86.61
60817;BME280;51921;51.518;-3.188;2023-07-22T01:47:51;100946.38;;;15.30;92.10
60817;BME280;51921;51.518;-3.188;2023-07-22T01:50:17;100940.97;;;15.79;91.65
60817;BME280;51921;51.518;-3.188;2023-07-22T01:52:42;100937.37;;;15.66;90.23
60817;BME280;51921;51.518;-3.188;2023-07-22T01:55:08;100932.57;;;16.11;87.63
60817;BME280;51921;51.518;-3.188;2023-07-22T01:57:33;100928.84;;;16.11;87.65
60817;BME280;51921;51.518;-3.188;2023-07-22T01:59:58;100924.00;;;16.01;87.55
60817;BME280;51921;51.518;-3.188;2023-07-22T02:02:24;100922.12;;;16.29;87.56
60817;BME280;51921;51.518;-3.188;2023-07-22T02:04:49;100917.54;;;16.22;87.62
60817;BME280;51921;51.518;-3.188;2023-07-22T02:07:14;100920.78;;;15.51;90.07
60817;BME280;51921;51.518;-3.188;2023-07-22T02:09:40;100917.80;;;15.92;87.81
60817;BME280;51921;51.518;-3.188;2023-07-22T02:12:06;100918.56;;;14.64;95.44
60817;BME280;51921;51.518;-3.188;2023-07-22T02:14:31;100915.29;;;14.75;94.17
60817;BME280;51921;51.518;-3.188;2023-07-22T02:16:56;100914.85;;;14.94;92.89
60817;BME280;51921;51.518;-3.188;2023-07-22T02:19:21;100914.58;;;14.65;97.23
60817;BME280;51921;51.518;-3.188;2023-07-22T02:21:47;100912.30;;;14.43;96.47
60817;BME280;51921;51.518;-3.188;2023-07-22T02:24:14;100907.64;;;15.12;93.18
60817;BME280;51921;51.518;-3.188;2023-07-22T02:26:38;100903.07;;;15.07;92.19
60817;BME280;51921;51.518;-3.188;2023-07-22T02:29:03;100895.51;;;13.57;99.59
60817;BME280;51921;51.518;-3.188;2023-07-22T02:31:29;100892.26;;;15.05;92.78
60817;BME280;51921;51.518;-3.188;2023-07-22T02:33:54;100889.88;;;14.18;96.20
60817;BME280;51921;51.518;-3.188;2023-07-22T02:36:20;100892.49;;;14.30;95.22
60817;BME280;51921;51.518;-3.188;2023-07-22T02:38:45;100885.69;;;13.87;97.76
60817;BME280;51921;51.518;-3.188;2023-07-22T02:41:10;100878.78;;;14.04;95.39
60817;BME280;51921;51.518;-3.188;2023-07-22T02:43:36;100879.69;;;14.86;92.24
60817;BME280;51921;51.518;-3.188;2023-07-22T02:46:01;100877.52;;;13.72;97.45
60817;BME280;51921;51.518;-3.188;2023-07-22T02:48:26;100874.49;;;13.44;99.15
60817;BME280;51921;51.518;-3.188;2023-07-22T02:50:52;100874.69;;;13.93;95.35
60817;BME280;51921;51.518;-3.188;2023-07-22T02:53:17;100873.15;;;14.82;93.13
60817;BME280;51921;51.518;-3.188;2023-07-22T02:55:43;100871.61;;;14.19;94.78
60817;BME280;51921;51.518;-3.188;2023-07-22T02:58:08;100870.27;;;13.99;93.57
60817;BME280;51921;51.518;-3.188;2023-07-22T03:00:34;100866.18;;;13.53;97.80
60817;BME280;51921;51.518;-3.188;2023-07-22T03:02:59;100859.35;;;13.46;97.23
60817;BME280;51921;51.518;-3.188;2023-07-22T03:05:25;100860.30;;;14.39;95.38
60817;BME280;51921;51.518;-3.188;2023-07-22T03:07:50;100850.69;;;14.66;90.83
60817;BME280;51921;51.518;-3.188;2023-07-22T03:10:15;100853.74;;;14.56;92.58
60817;BME280;51921;51.518;-3.188;2023-07-22T03:12:41;100851.37;;;13.41;97.25
60817;BME280;51921;51.518;-3.188;2023-07-22T03:15:07;100846.20;;;13.07;100.00
60817;BME280;51921;51.518;-3.188;2023-07-22T03:17:31;100848.00;;;14.10;96.01
60817;BME280;51921;51.518;-3.188;2023-07-22T03:19:57;100851.31;;;13.74;97.67
60817;BME280;51921;51.518;-3.188;2023-07-22T03:22:22;100852.29;;;13.31;100.00
60817;BME280;51921;51.518;-3.188;2023-07-22T03:24:47;100857.38;;;13.79;98.34
60817;BME280;51921;51.518;-3.188;2023-07-22T03:27:14;100857.78;;;13.20;100.00
60817;BME280;51921;51.518;-3.188;2023-07-22T03:29:38;100861.12;;;14.11;100.00
60817;BME280;51921;51.518;-3.188;2023-07-22T03:32:04;100857.88;;;13.36;100.00
60817;BME280;51921;51.518;-3.188;2023-07-22T03:34:29;100855.94;;;13.66;100.00
60817;BME280;51921;51.518;-3.188;2023-07-22T03:36:54;100855.58;;;13.17;100.00
60817;BME280;51921;51.518;-3.188;2023-07-22T03:39:19;100855.51;;;13.20;100.00
60817;BME280;51921;51.518;-3.188;2023-07-22T03:41:45;100855.20;;;14.32;100.00
60817;BME280;51921;51.518;-3.188;2023-07-22T03:44:11;100850.29;;;14.20;100.00
60817;BME280;51921;51.518;-3.188;2023-07-22T03:46:36;100846.84;;;13.64;100.00
60817;BME280;51921;51.518;-3.188;2023-07-22T03:49:01;100844.40;;;13.30;100.00
60817;BME280;51921;51.518;-3.188;2023-07-22T03:51:27;100841.18;;;13.08;100.00
60817;BME280;51921;51.518;-3.188;2023-07-22T03:53:52;100840.09;;;13.00;100.00
60817;BME280;51921;51.518;-3.188;2023-07-22T03:56:18;100839.89;;;14.10;100.00
60817;BME280;51921;51.518;-3.188;2023-07-22T03:58:43;100839.16;;;14.21;100.00
60817;BME280;51921;51.518;-3.188;2023-07-22T04:01:10;100834.03;;;13.70;100.00
60817;BME280;51921;51.518;-3.188;2023-07-22T04:03:34;100829.64;;;13.56;100.00
60817;BME280;51921;51.518;-3.188;2023-07-22T04:05:59;100827.67;;;13.03;100.00
60817;BME280;51921;51.518;-3.188;2023-07-22T04:08:25;100829.43;;;12.87;100.00
60817;BME280;51921;51.518;-3.188;2023-07-22T04:10:52;100829.22;;;13.10;100.00
60817;BME280;51921;51.518;-3.188;2023-07-22T04:13:15;100826.49;;;13.29;100.00
60817;BME280;51921;51.518;-3.188;2023-07-22T04:15:41;100822.40;;;13.98;100.00
60817;BME280;51921;51.518;-3.188;2023-07-22T04:18:06;100815.85;;;13.54;100.00
60817;BME280;51921;51.518;-3.188;2023-07-22T04:20:32;100810.90;;;13.55;100.00
60817;BME280;51921;51.518;-3.188;2023-07-22T04:22:57;100806.80;;;13.02;100.00
60817;BME280;51921;51.518;-3.188;2023-07-22T04:25:22;100807.28;;;13.12;100.00
60817;BME280;51921;51.518;-3.188;2023-07-22T04:27:48;100805.04;;;13.48;100.00
60817;BME280;51921;51.518;-3.188;2023-07-22T04:30:13;100795.80;;;13.17;100.00
60817;BME280;51921;51.518;-3.188;2023-07-22T04:32:39;100793.57;;;13.32;100.00
60817;BME280;51921;51.518;-3.188;2023-07-22T04:35:06;100792.42;;;12.62;100.00
60817;BME280;51921;51.518;-3.188;2023-07-22T04:37:29;100794.65;;;13.24;100.00
60817;BME280;51921;51.518;-3.188;2023-07-22T04:39:55;100793.30;;;12.29;100.00
60817;BME280;51921;51.518;-3.188;2023-07-22T04:42:20;100784.85;;;12.65;100.00
60817;BME280;51921;51.518;-3.188;2023-07-22T04:44:45;100779.73;;;12.52;100.00
60817;BME280;51921;51.518;-3.188;2023-07-22T04:47:10;100774.77;;;13.19;100.00
60817;BME280;51921;51.518;-3.188;2023-07-22T04:49:36;100776.77;;;11.90;100.00
60817;BME280;51921;51.518;-3.188;2023-07-22T04:52:01;100780.86;;;12.08;100.00
60817;BME280;51921;51.518;-3.188;2023-07-22T04:54:27;100779.25;;;12.03;100.00
60817;BME280;51921;51.518;-3.188;2023-07-22T04:56:52;100773.34;;;12.33;100.00
60817;BME280;51921;51.518;-3.188;2023-07-22T04:59:17;100768.72;;;12.69;100.00
60817;BME280;51921;51.518;-3.188;2023-07-22T05:01:43;100773.95;;;12.13;100.00
60817;BME280;51921;51.518;-3.188;2023-07-22T05:04:08;100774.11;;;12.34;100.00
60817;BME280;51921;51.518;-3.188;2023-07-22T05:06:34;100769.61;;;11.88;100.00
60817;BME280;51921;51.518;-3.188;2023-07-22T05:08:59;100772.97;;;11.89;100.00
60817;BME280;51921;51.518;-3.188;2023-07-22T05:11:24;100772.16;;;11.83;100.00
60817;BME280;51921;51.518;-3.188;2023-07-22T05:13:50;100775.21;;;11.53;100.00
60817;BME280;51921;51.518;-3.188;2023-07-22T05:16:15;100770.92;;;12.47;100.00
60817;BME280;51921;51.518;-3.188;2023-07-22T05:18:41;100767.88;;;12.17;100.00
60817;BME280;51921;51.518;-3.188;2023-07-22T05:21:06;100768.58;;;12.51;100.00
60817;BME280;51921;51.518;-3.188;2023-07-22T05:23:31;100763.87;;;12.01;100.00
60817;BME280;51921;51.518;-3.188;2023-07-22T05:25:57;100760.25;;;12.41;100.00
60817;BME280;51921;51.518;-3.188;2023-07-22T05:28:22;100762.56;;;12.03;100.00
60817;BME280;51921;51.518;-3.188;2023-07-22T05:30:47;100761.75;;;12.36;100.00
60817;BME280;51921;51.518;-3.188;2023-07-22T05:33:13;100752.99;;;12.23;100.00
60817;BME280;51921;51.518;-3.188;2023-07-22T05:35:38;100747.49;;;12.03;100.00
60817;BME280;51921;51.518;-3.188;2023-07-22T05:38:03;100745.25;;;12.61;100.00
60817;BME280;51921;51.518;-3.188;2023-07-22T05:40:29;100743.18;;;12.78;100.00
60817;BME280;51921;51.518;-3.188;2023-07-22T05:42:54;100739.20;;;12.14;100.00
60817;BME280;51921;51.518;-3.188;2023-07-22T05:45:20;100733.77;;;12.03;100.00
60817;BME280;51921;51.518;-3.188;2023-07-22T05:47:45;100735.28;;;11.89;100.00
60817;BME280;51921;51.518;-3.188;2023-07-22T05:50:10;100731.24;;;11.94;100.00
60817;BME280;51921;51.518;-3.188;2023-07-22T05:52:36;100729.87;;;11.38;100.00
60817;BME280;51921;51.518;-3.188;2023-07-22T05:55:01;100729.56;;;11.69;100.00
60817;BME280;51921;51.518;-3.188;2023-07-22T05:57:27;100731.16;;;11.94;100.00
60817;BME280;51921;51.518;-3.188;2023-07-22T05:59:52;100729.94;;;12.41;100.00
60817;BME280;51921;51.518;-3.188;2023-07-22T06:02:18;100725.83;;;12.29;100.00
60817;BME280;51921;51.518;-3.188;2023-07-22T06:04:43;100723.53;;;12.43;100.00
60817;BME280;51921;51.518;-3.188;2023-07-22T06:07:08;100722.20;;;12.18;100.00
60817;BME280;51921;51.518;-3.188;2023-07-22T06:09:34;100717.64;;;12.19;100.00
60817;BME280;51921;51.518;-3.188;2023-07-22T06:11:59;100721.55;;;12.19;100.00
60817;BME280;51921;51.518;-3.188;2023-07-22T06:14:24;100721.16;;;12.14;100.00
60817;BME280;51921;51.518;-3.188;2023-07-22T06:16:50;100717.14;;;12.03;100.00
60817;BME280;51921;51.518;-3.188;2023-07-22T06:19:15;100715.12;;;12.51;100.00
60817;BME280;51921;51.518;-3.188;2023-07-22T06:21:41;100712.25;;;12.91;100.00
60817;BME280;51921;51.518;-3.188;2023-07-22T06:24:06;100716.02;;;11.98;100.00
60817;BME280;51921;51.518;-3.188;2023-07-22T06:26:31;100711.36;;;11.93;100.00
60817;BME280;51921;51.518;-3.188;2023-07-22T06:28:57;100708.65;;;12.43;100.00
60817;BME280;51921;51.518;-3.188;2023-07-22T06:31:22;100709.24;;;12.21;100.00
60817;BME280;51921;51.518;-3.188;2023-07-22T06:33:47;100707.98;;;12.47;100.00
60817;BME280;51921;51.518;-3.188;2023-07-22T06:36:12;100708.02;;;12.45;100.00
60817;BME280;51921;51.518;-3.188;2023-07-22T06:38:38;100711.24;;;11.81;100.00
60817;BME280;51921;51.518;-3.188;2023-07-22T06:41:03;100706.37;;;12.11;100.00
60817;BME280;51921;51.518;-3.188;2023-07-22T06:43:28;100708.23;;;12.32;100.00
60817;BME280;51921;51.518;-3.188;2023-07-22T06:45:54;100708.92;;;12.14;100.00
60817;BME280;51921;51.518;-3.188;2023-07-22T06:48:19;100714.26;;;12.44;100.00
60817;BME280;51921;51.518;-3.188;2023-07-22T06:50:47;100702.38;;;12.17;100.00
60817;BME280;51921;51.518;-3.188;2023-07-22T06:53:09;100707.74;;;12.05;100.00
60817;BME280;51921;51.518;-3.188;2023-07-22T06:55:35;100705.38;;;11.14;100.00
60817;BME280;51921;51.518;-3.188;2023-07-22T06:58:00;100705.73;;;11.61;100.00
60817;BME280;51921;51.518;-3.188;2023-07-22T07:00:26;100695.92;;;12.38;100.00
60817;BME280;51921;51.518;-3.188;2023-07-22T07:02:51;100695.42;;;12.04;100.00
60817;BME280;51921;51.518;-3.188;2023-07-22T07:05:16;100695.10;;;11.93;100.00
60817;BME280;51921;51.518;-3.188;2023-07-22T07:07:42;100691.51;;;12.06;100.00
60817;BME280;51921;51.518;-3.188;2023-07-22T07:10:07;100695.59;;;11.71;100.00
60817;BME280;51921;51.518;-3.188;2023-07-22T07:12:32;100693.49;;;11.60;100.00
60817;BME280;51921;51.518;-3.188;2023-07-22T07:14:58;100692.64;;;12.94;100.00
60817;BME280;51921;51.518;-3.188;2023-07-22T07:17:23;100693.67;;;12.96;100.00
60817;BME280;51921;51.518;-3.188;2023-07-22T07:19:49;100693.77;;;12.47;100.00
60817;BME280;51921;51.518;-3.188;2023-07-22T07:22:14;100692.19;;;12.31;100.00
60817;BME280;51921;51.518;-3.188;2023-07-22T07:24:40;100691.24;;;11.85;100.00
60817;BME280;51921;51.518;-3.188;2023-07-22T07:27:06;100688.02;;;11.44;100.00
60817;BME280;51921;51.518;-3.188;2023-07-22T07:29:30;100688.87;;;12.28;100.00
60817;BME280;51921;51.518;-3.188;2023-07-22T07:31:56;100687.11;;;13.07;100.00
60817;BME280;51921;51.518;-3.188;2023-07-22T07:34:22;100689.06;;;12.37;100.00
60817;BME280;51921;51.518;-3.188;2023-07-22T07:36:47;100687.72;;;12.69;100.00
60817;BME280;51921;51.518;-3.188;2023-07-22T07:39:12;100684.35;;;12.06;100.00
60817;BME280;51921;51.518;-3.188;2023-07-22T07:41:38;100684.56;;;12.55;100.00
60817;BME280;51921;51.518;-3.188;2023-07-22T07:44:03;100687.87;;;12.65;100.00
60817;BME280;51921;51.518;-3.188;2023-07-22T07:46:28;100683.73;;;11.76;100.00
60817;BME280;51921;51.518;-3.188;2023-07-22T07:48:55;100685.73;;;12.02;100.00
60817;BME280;51921;51.518;-3.188;2023-07-22T07:51:21;100681.50;;;12.23;100.00
60817;BME280;51921;51.518;-3.188;2023-07-22T07:53:46;100682.02;;;12.33;100.00
60817;BME280;51921;51.518;-3.188;2023-07-22T07:56:11;100679.53;;;12.77;100.00
60817;BME280;51921;51.518;-3.188;2023-07-22T07:58:36;100679.11;;;12.13;100.00
60817;BME280;51921;51.518;-3.188;2023-07-22T08:01:02;100677.51;;;11.99;100.00
60817;BME280;51921;51.518;-3.188;2023-07-22T08:03:27;100678.77;;;12.50;100.00
60817;BME280;51921;51.518;-3.188;2023-07-22T08:05:52;100674.31;;;12.42;100.00
60817;BME280;51921;51.518;-3.188;2023-07-22T08:08:18;100672.93;;;11.80;100.00
60817;BME280;51921;51.518;-3.188;2023-07-22T08:10:43;100669.22;;;12.08;100.00
60817;BME280;51921;51.518;-3.188;2023-07-22T08:13:08;100670.97;;;11.99;100.00
60817;BME280;51921;51.518;-3.188;2023-07-22T08:15:33;100665.51;;;11.54;100.00
60817;BME280;51921;51.518;-3.188;2023-07-22T08:17:59;100662.92;;;12.25;100.00
60817;BME280;51921;51.518;-3.188;2023-07-22T08:20:24;100660.84;;;12.18;100.00
60817;BME280;51921;51.518;-3.188;2023-07-22T08:22:49;100662.54;;;11.75;100.00
60817;BME280;51921;51.518;-3.188;2023-07-22T08:25:15;100656.35;;;11.92;100.00
60817;BME280;51921;51.518;-3.188;2023-07-22T08:27:40;100658.20;;;12.47;100.00
60817;BME280;51921;51.518;-3.188;2023-07-22T08:30:07;100654.12;;;13.18;100.00
60817;BME280;51921;51.518;-3.188;2023-07-22T08:32:31;100655.14;;;12.37;100.00
60817;BME280;51921;51.518;-3.188;2023-07-22T08:34:57;100650.69;;;12.51;100.00
60817;BME280;51921;51.518;-3.188;2023-07-22T08:37:22;100646.68;;;12.36;100.00
60817;BME280;51921;51.518;-3.188;2023-07-22T08:39:47;100646.88;;;12.34;100.00
60817;BME280;51921;51.518;-3.188;2023-07-22T08:42:13;100645.02;;;12.58;100.00
60817;BME280;51921;51.518;-3.188;2023-07-22T08:44:43;100644.64;;;13.19;100.00
60817;BME280;51921;51.518;-3.188;2023-07-22T08:47:05;100637.53;;;13.20;100.00
60817;BME280;51921;51.518;-3.188;2023-07-22T08:49:29;100635.55;;;13.26;100.00
60817;BME280;51921;51.518;-3.188;2023-07-22T08:51:56;100630.49;;;12.57;100.00
60817;BME280;51921;51.518;-3.188;2023-07-22T08:54:20;100629.98;;;13.12;100.00
60817;BME280;51921;51.518;-3.188;2023-07-22T08:56:45;100627.10;;;13.34;100.00
60817;BME280;51921;51.518;-3.188;2023-07-22T08:59:10;100618.79;;;13.24;100.00
60817;BME280;51921;51.518;-3.188;2023-07-22T09:01:35;100615.75;;;14.05;100.00
60817;BME280;51921;51.518;-3.188;2023-07-22T09:04:00;100614.58;;;14.57;100.00
60817;BME280;51921;51.518;-3.188;2023-07-22T09:06:25;100612.35;;;13.63;100.00
60817;BME280;51921;51.518;-3.188;2023-07-22T09:08:51;100608.92;;;12.56;100.00
60817;BME280;51921;51.518;-3.188;2023-07-22T09:11:19;100607.86;;;12.55;100.00
60817;BME280;51921;51.518;-3.188;2023-07-22T09:13:44;100602.16;;;12.40;100.00
60817;BME280;51921;51.518;-3.188;2023-07-22T09:16:08;100596.38;;;12.17;100.00
60817;BME280;51921;51.518;-3.188;2023-07-22T09:18:33;100599.40;;;12.68;100.00
60817;BME280;51921;51.518;-3.188;2023-07-22T09:20:58;100596.07;;;12.73;100.00
60817;BME280;51921;51.518;-3.188;2023-07-22T09:23:32;100590.52;;;12.36;100.00
60817;BME280;51921;51.518;-3.188;2023-07-22T09:25:49;100591.89;;;12.31;100.00
60817;BME280;51921;51.518;-3.188;2023-07-22T09:28:14;100593.17;;;13.35;100.00
60817;BME280;51921;51.518;-3.188;2023-07-22T09:30:39;100586.13;;;13.03;100.00
60817;BME280;51921;51.518;-3.188;2023-07-22T09:33:06;100577.33;;;13.82;100.00
60817;BME280;51921;51.518;-3.188;2023-07-22T09:35:31;100572.42;;;13.74;100.00
60817;BME280;51921;51.518;-3.188;2023-07-22T09:37:56;100573.41;;;13.35;100.00
60817;BME280;51921;51.518;-3.188;2023-07-22T09:40:23;100570.31;;;13.69;100.00
60817;BME280;51921;51.518;-3.188;2023-07-22T09:42:48;100566.41;;;13.90;100.00
60817;BME280;51921;51.518;-3.188;2023-07-22T09:45:12;100565.17;;;13.51;100.00
60817;BME280;51921;51.518;-3.188;2023-07-22T09:47:40;100559.17;;;13.28;100.00
60817;BME280;51921;51.518;-3.188;2023-07-22T09:50:03;100551.47;;;13.90;100.00
60817;BME280;51921;51.518;-3.188;2023-07-22T09:52:28;100552.81;;;12.18;100.00
60817;BME280;51921;51.518;-3.188;2023-07-22T09:54:54;100553.37;;;12.34;100.00
60817;BME280;51921;51.518;-3.188;2023-07-22T09:57:21;100549.35;;;13.77;100.00
60817;BME280;51921;51.518;-3.188;2023-07-22T09:59:45;100552.21;;;12.98;100.00
60817;BME280;51921;51.518;-3.188;2023-07-22T10:02:11;100551.06;;;13.14;100.00
60817;BME280;51921;51.518;-3.188;2023-07-22T10:04:36;100546.34;;;12.74;100.00
60817;BME280;51921;51.518;-3.188;2023-07-22T10:07:01;100549.01;;;12.43;100.00
60817;BME280;51921;51.518;-3.188;2023-07-22T10:09:28;100545.86;;;12.82;100.00
60817;BME280;51921;51.518;-3.188;2023-07-22T10:11:51;100547.20;;;13.10;100.00
60817;BME280;51921;51.518;-3.188;2023-07-22T10:14:17;100543.13;;;13.12;100.00
60817;BME280;51921;51.518;-3.188;2023-07-22T10:16:42;100541.64;;;13.21;100.00
60817;BME280;51921;51.518;-3.188;2023-07-22T10:19:09;100535.03;;;13.21;100.00
60817;BME280;51921;51.518;-3.188;2023-07-22T10:21:33;100531.60;;;13.03;100.00
60817;BME280;51921;51.518;-3.188;2023-07-22T10:24:00;100527.08;;;12.45;100.00
60817;BME280;51921;51.518;-3.188;2023-07-22T10:26:24;100524.18;;;12.57;100.00
60817;BME280;51921;51.518;-3.188;2023-07-22T10:28:49;100521.01;;;12.19;100.00
60817;BME280;51921;51.518;-3.188;2023-07-22T10:31:15;100519.57;;;12.41;100.00
60817;BME280;51921;51.518;-3.188;2023-07-22T10:33:40;100511.92;;;12.68;100.00
60817;BME280;51921;51.518;-3.188;2023-07-22T10:36:08;100504.35;;;13.43;100.00
60817;BME280;51921;51.518;-3.188;2023-07-22T10:38:31;100504.09;;;13.96;100.00
60817;BME280;51921;51.518;-3.188;2023-07-22T10:40:56;100499.95;;;13.76;100.00
60817;BME280;51921;51.518;-3.188;2023-07-22T10:43:25;100495.43;;;13.72;100.00
60817;BME280;51921;51.518;-3.188;2023-07-22T10:45:50;100497.60;;;13.53;100.00
60817;BME280;51921;51.518;-3.188;2023-07-22T10:48:13;100497.29;;;12.93;100.00
60817;BME280;51921;51.518;-3.188;2023-07-22T10:50:40;100492.71;;;13.33;100.00
60817;BME280;51921;51.518;-3.188;2023-07-22T10:53:03;100486.04;;;13.82;100.00
60817;BME280;51921;51.518;-3.188;2023-07-22T10:55:28;100488.11;;;12.65;100.00
60817;BME280;51921;51.518;-3.188;2023-07-22T10:57:54;100478.08;;;13.70;100.00
60817;BME280;51921;51.518;-3.188;2023-07-22T11:00:19;100476.69;;;13.64;100.00
60817;BME280;51921;51.518;-3.188;2023-07-22T11:02:47;100470.95;;;13.75;100.00
60817;BME280;51921;51.518;-3.188;2023-07-22T11:05:11;100470.26;;;13.29;100.00
60817;BME280;51921;51.518;-3.188;2023-07-22T11:07:42;100466.51;;;13.08;100.00
60817;BME280;51921;51.518;-3.188;2023-07-22T11:10:12;100460.18;;;13.16;100.00
60817;BME280;51921;51.518;-3.188;2023-07-22T11:12:27;100457.18;;;13.31;100.00
60817;BME280;51921;51.518;-3.188;2023-07-22T11:14:53;100453.90;;;13.39;100.00
60817;BME280;51921;51.518;-3.188;2023-07-22T11:17:18;100449.84;;;13.73;100.00
60817;BME280;51921;51.518;-3.188;2023-07-22T11:19:43;100442.10;;;13.86;100.00
60817;BME280;51921;51.518;-3.188;2023-07-22T11:22:08;100443.00;;;13.31;100.00
60817;BME280;51921;51.518;-3.188;2023-07-22T11:24:34;100440.65;;;12.96;100.00
60817;BME280;51921;51.518;-3.188;2023-07-22T11:26:59;100434.44;;;13.49;100.00
60817;BME280;51921;51.518;-3.188;2023-07-22T11:29:24;100429.30;;;13.49;100.00
60817;BME280;51921;51.518;-3.188;2023-07-22T11:31:51;100424.10;;;13.65;100.00
60817;BME280;51921;51.518;-3.188;2023-07-22T11:34:16;100422.19;;;13.10;100.00
60817;BME280;51921;51.518;-3.188;2023-07-22T11:36:41;100422.53;;;12.96;100.00
60817;BME280;51921;51.518;-3.188;2023-07-22T11:39:07;100414.65;;;13.15;100.00
60817;BME280;51921;51.518;-3.188;2023-07-22T11:41:32;100413.22;;;12.80;100.00
60817;BME280;51921;51.518;-3.188;2023-07-22T11:43:57;100412.46;;;13.04;100.00
60817;BME280;51921;51.518;-3.188;2023-07-22T11:46:22;100407.00;;;12.92;100.00
60817;BME280;51921;51.518;-3.188;2023-07-22T11:48:49;100400.52;;;13.19;100.00
60817;BME280;51921;51.518;-3.188;2023-07-22T11:51:13;100398.25;;;13.38;100.00
60817;BME280;51921;51.518;-3.188;2023-07-22T11:53:38;100395.37;;;13.57;100.00
60817;BME280;51921;51.518;-3.188;2023-07-22T11:56:05;100387.81;;;13.46;100.00
60817;BME280;51921;51.518;-3.188;2023-07-22T11:58:29;100387.78;;;13.34;100.00
60817;BME280;51921;51.518;-3.188;2023-07-22T12:01:03;100384.24;;;13.77;100.00
60817;BME280;51921;51.518;-3.188;2023-07-22T12:03:20;100383.56;;;13.95;100.00
60817;BME280;51921;51.518;-3.188;2023-07-22T12:05:45;100377.24;;;13.54;100.00
60817;BME280;51921;51.518;-3.188;2023-07-22T12:08:15;100379.37;;;13.86;100.00
60817;BME280;51921;51.518;-3.188;2023-07-22T12:10:36;100372.07;;;13.30;100.00
60817;BME280;51921;51.518;-3.188;2023-07-22T12:13:01;100372.22;;;13.57;100.00
60817;BME280;51921;51.518;-3.188;2023-07-22T12:15:27;100361.62;;;13.97;100.00
60817;BME280;51921;51.518;-3.188;2023-07-22T12:17:53;100365.04;;;14.54;100.00
60817;BME280;51921;51.518;-3.188;2023-07-22T12:20:18;100361.93;;;13.43;100.00
60817;BME280;51921;51.518;-3.188;2023-07-22T12:22:43;100361.44;;;13.79;100.00